sensor_id;sensor_type;location;lat;lon;timestamp;pressure;altitude;pressure_sealevel;temperature
70831;BMP180;58451;51.550;7.208;2023-05-07T00:00:48;100892.00;;;13.70
70831;BMP180;58451;51.550;7.208;2023-05-07T00:02:21;100894.40;;;13.70
70831;BMP180;58451;51.550;7.208;2023-05-07T00:03:54;100893.80;;;13.70
70831;BMP180;58451;51.550;7.208;2023-05-07T00:05:26;100897.80;;;13.70
70831;BMP180;58451;51.550;7.208;2023-05-07T00:06:58;100899.60;;;13.70
70831;BMP180;58451;51.550;7.208;2023-05-07T00:08:33;100900.80;;;13.70
70831;BMP180;58451;51.550;7.208;2023-05-07T00:10:06;100901.20;;;13.70
70831;BMP180;58451;51.550;7.208;2023-05-07T00:11:38;100909.40;;;13.70
70831;BMP180;58451;51.550;7.208;2023-05-07T00:13:10;100906.20;;;13.70
70831;BMP180;58451;51.550;7.208;2023-05-07T00:14:42;100909.20;;;13.70
70831;BMP180;58451;51.550;7.208;2023-05-07T00:16:14;100910.40;;;13.70
70831;BMP180;58451;51.550;7.208;2023-05-07T00:17:46;100917.60;;;13.70
70831;BMP180;58451;51.550;7.208;2023-05-07T00:19:18;100915.00;;;13.70
70831;BMP180;58451;51.550;7.208;2023-05-07T00:20:49;100911.60;;;13.70
70831;BMP180;58451;51.550;7.208;2023-05-07T00:22:21;100918.60;;;13.70
70831;BMP180;58451;51.550;7.208;2023-05-07T00:23:54;100910.80;;;13.70
70831;BMP180;58451;51.550;7.208;2023-05-07T00:25:27;100910.00;;;13.70
70831;BMP180;58451;51.550;7.208;2023-05-07T00:26:59;100910.60;;;13.70
70831;BMP180;58451;51.550;7.208;2023-05-07T00:28:31;100908.20;;;13.70
70831;BMP180;58451;51.550;7.208;2023-05-07T00:30:03;100910.20;;;13.70
70831;BMP180;58451;51.550;7.208;2023-05-07T00:31:35;100907.60;;;13.70
70831;BMP180;58451;51.550;7.208;2023-05-07T00:33:07;100907.00;;;13.62
70831;BMP180;58451;51.550;7.208;2023-05-07T00:34:40;100906.60;;;13.60
70831;BMP180;58451;51.550;7.208;2023-05-07T00:36:12;100906.20;;;13.60
70831;BMP180;58451;51.550;7.208;2023-05-07T00:37:43;100912.40;;;13.60
70831;BMP180;58451;51.550;7.208;2023-05-07T00:39:16;100910.00;;;13.60
70831;BMP180;58451;51.550;7.208;2023-05-07T00:40:48;100909.40;;;13.60
70831;BMP180;58451;51.550;7.208;2023-05-07T00:42:20;100905.80;;;13.52
70831;BMP180;58451;51.550;7.208;2023-05-07T00:43:52;100905.80;;;13.50
70831;BMP180;58451;51.550;7.208;2023-05-07T00:45:27;100906.20;;;13.50
70831;BMP180;58451;51.550;7.208;2023-05-07T00:47:03;100901.60;;;13.50
70831;BMP180;58451;51.550;7.208;2023-05-07T00:48:37;100902.80;;;13.50
70831;BMP180;58451;51.550;7.208;2023-05-07T00:50:09;100898.80;;;13.50
70831;BMP180;58451;51.550;7.208;2023-05-07T00:51:43;100891.80;;;13.40
70831;BMP180;58451;51.550;7.208;2023-05-07T00:53:15;100890.00;;;13.40
70831;BMP180;58451;51.550;7.208;2023-05-07T00:54:47;100887.80;;;13.40
70831;BMP180;58451;51.550;7.208;2023-05-07T00:56:21;100889.20;;;13.40
70831;BMP180;58451;51.550;7.208;2023-05-07T00:57:53;100886.80;;;13.40
70831;BMP180;58451;51.550;7.208;2023-05-07T00:59:26;100885.40;;;13.40
70831;BMP180;58451;51.550;7.208;2023-05-07T01:00:57;100889.60;;;13.40
70831;BMP180;58451;51.550;7.208;2023-05-07T01:02:29;100883.80;;;13.40
70831;BMP180;58451;51.550;7.208;2023-05-07T01:04:02;100882.00;;;13.40
70831;BMP180;58451;51.550;7.208;2023-05-07T01:05:35;100882.40;;;13.36
70831;BMP180;58451;51.550;7.208;2023-05-07T01:07:07;100885.20;;;13.32
70831;BMP180;58451;51.550;7.208;2023-05-07T01:08:41;100884.00;;;13.34
70831;BMP180;58451;51.550;7.208;2023-05-07T01:10:14;100885.80;;;13.30
70831;BMP180;58451;51.550;7.208;2023-05-07T01:11:49;100889.00;;;13.30
70831;BMP180;58451;51.550;7.208;2023-05-07T01:13:22;100886.00;;;13.30
70831;BMP180;58451;51.550;7.208;2023-05-07T01:14:55;100886.80;;;13.30
70831;BMP180;58451;51.550;7.208;2023-05-07T01:16:27;100889.00;;;13.30
70831;BMP180;58451;51.550;7.208;2023-05-07T01:17:59;100887.20;;;13.30
70831;BMP180;58451;51.550;7.208;2023-05-07T01:19:35;100885.40;;;13.30
70831;BMP180;58451;51.550;7.208;2023-05-07T01:21:11;100885.60;;;13.30
70831;BMP180;58451;51.550;7.208;2023-05-07T01:22:43;100882.20;;;13.30
70831;BMP180;58451;51.550;7.208;2023-05-07T01:24:15;100883.60;;;13.30
70831;BMP180;58451;51.550;7.208;2023-05-07T01:25:54;100884.80;;;13.30
70831;BMP180;58451;51.550;7.208;2023-05-07T01:27:27;100880.20;;;13.30
70831;BMP180;58451;51.550;7.208;2023-05-07T01:29:00;100882.80;;;13.30
70831;BMP180;58451;51.550;7.208;2023-05-07T01:30:33;100879.40;;;13.30
70831;BMP180;58451;51.550;7.208;2023-05-07T01:32:07;100883.00;;;13.30
70831;BMP180;58451;51.550;7.208;2023-05-07T01:33:41;100882.80;;;13.30
70831;BMP180;58451;51.550;7.208;2023-05-07T01:35:23;100882.00;;;13.30
70831;BMP180;58451;51.550;7.208;2023-05-07T01:36:56;100883.80;;;13.30
70831;BMP180;58451;51.550;7.208;2023-05-07T01:38:29;100876.80;;;13.30
70831;BMP180;58451;51.550;7.208;2023-05-07T01:40:02;100881.00;;;13.30
70831;BMP180;58451;51.550;7.208;2023-05-07T01:41:35;100878.80;;;13.30
70831;BMP180;58451;51.550;7.208;2023-05-07T01:43:07;100879.20;;;13.30
70831;BMP180;58451;51.550;7.208;2023-05-07T01:44:41;100883.00;;;13.30
70831;BMP180;58451;51.550;7.208;2023-05-07T01:46:14;100879.40;;;13.30
70831;BMP180;58451;51.550;7.208;2023-05-07T01:47:49;100878.80;;;13.30
70831;BMP180;58451;51.550;7.208;2023-05-07T01:49:21;100881.80;;;13.30
70831;BMP180;58451;51.550;7.208;2023-05-07T01:50:53;100889.80;;;13.30
70831;BMP180;58451;51.550;7.208;2023-05-07T01:52:27;100882.60;;;13.30
70831;BMP180;58451;51.550;7.208;2023-05-07T01:54:00;100880.60;;;13.30
70831;BMP180;58451;51.550;7.208;2023-05-07T01:55:33;100878.60;;;13.30
70831;BMP180;58451;51.550;7.208;2023-05-07T01:57:04;100877.00;;;13.30
70831;BMP180;58451;51.550;7.208;2023-05-07T01:58:37;100875.80;;;13.30
70831;BMP180;58451;51.550;7.208;2023-05-07T02:00:12;100873.40;;;13.30
70831;BMP180;58451;51.550;7.208;2023-05-07T02:01:47;100871.60;;;13.34
70831;BMP180;58451;51.550;7.208;2023-05-07T02:03:19;100871.00;;;13.34
70831;BMP180;58451;51.550;7.208;2023-05-07T02:04:57;100879.80;;;13.38
70831;BMP180;58451;51.550;7.208;2023-05-07T02:06:28;100877.60;;;13.32
70831;BMP180;58451;51.550;7.208;2023-05-07T02:08:06;100876.60;;;13.32
70831;BMP180;58451;51.550;7.208;2023-05-07T02:09:37;100879.20;;;13.30
70831;BMP180;58451;51.550;7.208;2023-05-07T02:11:09;100877.00;;;13.30
70831;BMP180;58451;51.550;7.208;2023-05-07T02:12:41;100876.00;;;13.30
70831;BMP180;58451;51.550;7.208;2023-05-07T02:14:14;100871.20;;;13.30
70831;BMP180;58451;51.550;7.208;2023-05-07T02:15:46;100870.60;;;13.30
70831;BMP180;58451;51.550;7.208;2023-05-07T02:17:22;100869.60;;;13.30
70831;BMP180;58451;51.550;7.208;2023-05-07T02:18:55;100870.20;;;13.30
70831;BMP180;58451;51.550;7.208;2023-05-07T02:20:27;100877.00;;;13.30
70831;BMP180;58451;51.550;7.208;2023-05-07T02:21:59;100873.40;;;13.30
70831;BMP180;58451;51.550;7.208;2023-05-07T02:23:33;100875.60;;;13.30
70831;BMP180;58451;51.550;7.208;2023-05-07T02:25:06;100875.20;;;13.30
70831;BMP180;58451;51.550;7.208;2023-05-07T02:26:40;100873.60;;;13.28
70831;BMP180;58451;51.550;7.208;2023-05-07T02:28:12;100876.00;;;13.30
70831;BMP180;58451;51.550;7.208;2023-05-07T02:29:52;100873.00;;;13.30
70831;BMP180;58451;51.550;7.208;2023-05-07T02:31:24;100871.60;;;13.30
70831;BMP180;58451;51.550;7.208;2023-05-07T02:32:56;100868.80;;;13.30
70831;BMP180;58451;51.550;7.208;2023-05-07T02:34:28;100870.60;;;13.24
70831;BMP180;58451;51.550;7.208;2023-05-07T02:36:11;100865.20;;;13.20
70831;BMP180;58451;51.550;7.208;2023-05-07T02:37:51;100868.40;;;13.20
70831;BMP180;58451;51.550;7.208;2023-05-07T02:39:23;100871.20;;;13.20
70831;BMP180;58451;51.550;7.208;2023-05-07T02:40:55;100866.20;;;13.20
70831;BMP180;58451;51.550;7.208;2023-05-07T02:42:26;100872.40;;;13.20
70831;BMP180;58451;51.550;7.208;2023-05-07T02:43:58;100874.00;;;13.20
70831;BMP180;58451;51.550;7.208;2023-05-07T02:45:32;100867.60;;;13.20
70831;BMP180;58451;51.550;7.208;2023-05-07T02:47:04;100869.20;;;13.14
70831;BMP180;58451;51.550;7.208;2023-05-07T02:48:36;100868.00;;;13.10
70831;BMP180;58451;51.550;7.208;2023-05-07T02:50:09;100870.60;;;13.10
70831;BMP180;58451;51.550;7.208;2023-05-07T02:51:41;100872.80;;;13.10
70831;BMP180;58451;51.550;7.208;2023-05-07T02:53:16;100869.80;;;13.10
70831;BMP180;58451;51.550;7.208;2023-05-07T02:54:48;100869.60;;;13.10
70831;BMP180;58451;51.550;7.208;2023-05-07T02:56:20;100872.20;;;13.10
70831;BMP180;58451;51.550;7.208;2023-05-07T02:57:52;100867.20;;;13.10
70831;BMP180;58451;51.550;7.208;2023-05-07T02:59:24;100864.00;;;13.10
70831;BMP180;58451;51.550;7.208;2023-05-07T03:00:57;100866.20;;;13.10
70831;BMP180;58451;51.550;7.208;2023-05-07T03:02:41;100865.40;;;13.10
70831;BMP180;58451;51.550;7.208;2023-05-07T03:04:13;100864.80;;;13.10
70831;BMP180;58451;51.550;7.208;2023-05-07T03:05:45;100864.40;;;13.10
70831;BMP180;58451;51.550;7.208;2023-05-07T03:07:16;100861.00;;;13.10
70831;BMP180;58451;51.550;7.208;2023-05-07T03:08:48;100861.60;;;13.10
70831;BMP180;58451;51.550;7.208;2023-05-07T03:10:20;100864.40;;;13.10
70831;BMP180;58451;51.550;7.208;2023-05-07T03:11:52;100868.00;;;13.10
70831;BMP180;58451;51.550;7.208;2023-05-07T03:13:24;100866.40;;;13.10
70831;BMP180;58451;51.550;7.208;2023-05-07T03:14:56;100869.80;;;13.10
70831;BMP180;58451;51.550;7.208;2023-05-07T03:16:28;100867.40;;;13.10
70831;BMP180;58451;51.550;7.208;2023-05-07T03:18:00;100865.20;;;13.10
70831;BMP180;58451;51.550;7.208;2023-05-07T03:19:32;100865.20;;;13.10
70831;BMP180;58451;51.550;7.208;2023-05-07T03:21:04;100872.20;;;13.10
70831;BMP180;58451;51.550;7.208;2023-05-07T03:22:37;100873.80;;;13.10
70831;BMP180;58451;51.550;7.208;2023-05-07T03:24:08;100876.00;;;13.10
70831;BMP180;58451;51.550;7.208;2023-05-07T03:25:40;100876.80;;;13.10
70831;BMP180;58451;51.550;7.208;2023-05-07T03:27:12;100870.40;;;13.10
70831;BMP180;58451;51.550;7.208;2023-05-07T03:28:44;100874.60;;;13.10
70831;BMP180;58451;51.550;7.208;2023-05-07T03:30:17;100873.60;;;13.10
70831;BMP180;58451;51.550;7.208;2023-05-07T03:31:50;100870.60;;;13.10
70831;BMP180;58451;51.550;7.208;2023-05-07T03:33:23;100868.00;;;13.10
70831;BMP180;58451;51.550;7.208;2023-05-07T03:34:55;100870.00;;;13.10
70831;BMP180;58451;51.550;7.208;2023-05-07T03:36:27;100870.00;;;13.10
70831;BMP180;58451;51.550;7.208;2023-05-07T03:38:00;100870.40;;;13.10
70831;BMP180;58451;51.550;7.208;2023-05-07T03:39:32;100873.80;;;13.10
70831;BMP180;58451;51.550;7.208;2023-05-07T03:41:05;100871.20;;;13.10
70831;BMP180;58451;51.550;7.208;2023-05-07T03:42:36;100873.80;;;13.10
70831;BMP180;58451;51.550;7.208;2023-05-07T03:44:08;100871.40;;;13.10
70831;BMP180;58451;51.550;7.208;2023-05-07T03:45:41;100865.80;;;13.10
70831;BMP180;58451;51.550;7.208;2023-05-07T03:47:23;100869.80;;;13.06
70831;BMP180;58451;51.550;7.208;2023-05-07T03:48:55;100871.60;;;13.02
70831;BMP180;58451;51.550;7.208;2023-05-07T03:50:27;100871.60;;;13.00
70831;BMP180;58451;51.550;7.208;2023-05-07T03:51:59;100872.60;;;13.00
70831;BMP180;58451;51.550;7.208;2023-05-07T03:53:31;100868.20;;;13.00
70831;BMP180;58451;51.550;7.208;2023-05-07T03:55:03;100869.60;;;13.00
70831;BMP180;58451;51.550;7.208;2023-05-07T03:56:35;100869.80;;;13.00
70831;BMP180;58451;51.550;7.208;2023-05-07T03:58:07;100874.00;;;13.00
70831;BMP180;58451;51.550;7.208;2023-05-07T03:59:39;100872.80;;;13.00
70831;BMP180;58451;51.550;7.208;2023-05-07T04:01:11;100876.20;;;13.00
70831;BMP180;58451;51.550;7.208;2023-05-07T04:02:43;100877.80;;;13.00
70831;BMP180;58451;51.550;7.208;2023-05-07T04:04:16;100875.60;;;13.00
70831;BMP180;58451;51.550;7.208;2023-05-07T04:05:48;100874.60;;;13.00
70831;BMP180;58451;51.550;7.208;2023-05-07T04:07:19;100876.40;;;13.00
70831;BMP180;58451;51.550;7.208;2023-05-07T04:08:53;100875.00;;;13.00
70831;BMP180;58451;51.550;7.208;2023-05-07T04:10:25;100876.60;;;13.00
70831;BMP180;58451;51.550;7.208;2023-05-07T04:11:58;100872.60;;;13.00
70831;BMP180;58451;51.550;7.208;2023-05-07T04:13:30;100876.20;;;13.00
70831;BMP180;58451;51.550;7.208;2023-05-07T04:15:02;100876.40;;;13.00
70831;BMP180;58451;51.550;7.208;2023-05-07T04:16:35;100876.00;;;13.00
70831;BMP180;58451;51.550;7.208;2023-05-07T04:18:07;100874.80;;;13.00
70831;BMP180;58451;51.550;7.208;2023-05-07T04:19:39;100877.80;;;13.00
70831;BMP180;58451;51.550;7.208;2023-05-07T04:21:17;100878.00;;;13.00
70831;BMP180;58451;51.550;7.208;2023-05-07T04:22:49;100879.20;;;13.00
70831;BMP180;58451;51.550;7.208;2023-05-07T04:24:21;100880.00;;;13.00
70831;BMP180;58451;51.550;7.208;2023-05-07T04:25:53;100878.80;;;13.00
70831;BMP180;58451;51.550;7.208;2023-05-07T04:27:29;100877.00;;;13.00
70831;BMP180;58451;51.550;7.208;2023-05-07T04:29:01;100877.60;;;13.00
70831;BMP180;58451;51.550;7.208;2023-05-07T04:30:36;100881.20;;;13.00
70831;BMP180;58451;51.550;7.208;2023-05-07T04:32:09;100879.00;;;13.08
70831;BMP180;58451;51.550;7.208;2023-05-07T04:33:41;100878.40;;;13.10
70831;BMP180;58451;51.550;7.208;2023-05-07T04:35:15;100876.20;;;13.10
70831;BMP180;58451;51.550;7.208;2023-05-07T04:36:47;100876.20;;;13.10
70831;BMP180;58451;51.550;7.208;2023-05-07T04:38:19;100881.60;;;13.10
70831;BMP180;58451;51.550;7.208;2023-05-07T04:39:52;100881.20;;;13.18
70831;BMP180;58451;51.550;7.208;2023-05-07T04:41:25;100880.40;;;13.20
70831;BMP180;58451;51.550;7.208;2023-05-07T04:42:58;100879.20;;;13.20
70831;BMP180;58451;51.550;7.208;2023-05-07T04:44:30;100881.20;;;13.20
70831;BMP180;58451;51.550;7.208;2023-05-07T04:46:02;100884.80;;;13.30
70831;BMP180;58451;51.550;7.208;2023-05-07T04:47:34;100881.40;;;13.30
70831;BMP180;58451;51.550;7.208;2023-05-07T04:49:06;100884.40;;;13.30
70831;BMP180;58451;51.550;7.208;2023-05-07T04:50:38;100881.20;;;13.40
70831;BMP180;58451;51.550;7.208;2023-05-07T04:52:10;100889.60;;;13.40
70831;BMP180;58451;51.550;7.208;2023-05-07T04:53:42;100891.80;;;13.46
70831;BMP180;58451;51.550;7.208;2023-05-07T04:55:15;100891.80;;;13.50
70831;BMP180;58451;51.550;7.208;2023-05-07T04:56:47;100891.60;;;13.60
70831;BMP180;58451;51.550;7.208;2023-05-07T04:58:19;100892.80;;;13.60
70831;BMP180;58451;51.550;7.208;2023-05-07T04:59:51;100893.60;;;13.60
70831;BMP180;58451;51.550;7.208;2023-05-07T05:01:23;100898.20;;;13.66
70831;BMP180;58451;51.550;7.208;2023-05-07T05:02:54;100895.20;;;13.70
70831;BMP180;58451;51.550;7.208;2023-05-07T05:04:27;100898.60;;;13.70
70831;BMP180;58451;51.550;7.208;2023-05-07T05:05:58;100901.80;;;13.80
70831;BMP180;58451;51.550;7.208;2023-05-07T05:07:33;100900.20;;;13.80
70831;BMP180;58451;51.550;7.208;2023-05-07T05:09:05;100899.40;;;13.82
70831;BMP180;58451;51.550;7.208;2023-05-07T05:10:37;100895.40;;;13.90
70831;BMP180;58451;51.550;7.208;2023-05-07T05:12:09;100898.40;;;13.90
70831;BMP180;58451;51.550;7.208;2023-05-07T05:13:41;100898.40;;;13.90
70831;BMP180;58451;51.550;7.208;2023-05-07T05:15:20;100902.80;;;14.00
70831;BMP180;58451;51.550;7.208;2023-05-07T05:16:52;100900.40;;;13.90
70831;BMP180;58451;51.550;7.208;2023-05-07T05:18:24;100901.80;;;13.92
70831;BMP180;58451;51.550;7.208;2023-05-07T05:19:55;100901.60;;;13.98
70831;BMP180;58451;51.550;7.208;2023-05-07T05:21:28;100903.60;;;14.00
70831;BMP180;58451;51.550;7.208;2023-05-07T05:23:03;100903.20;;;14.00
70831;BMP180;58451;51.550;7.208;2023-05-07T05:24:35;100901.40;;;14.00
70831;BMP180;58451;51.550;7.208;2023-05-07T05:26:07;100907.20;;;14.00
70831;BMP180;58451;51.550;7.208;2023-05-07T05:27:39;100908.80;;;14.10
70831;BMP180;58451;51.550;7.208;2023-05-07T05:29:11;100911.20;;;14.10
70831;BMP180;58451;51.550;7.208;2023-05-07T05:30:44;100914.20;;;14.10
70831;BMP180;58451;51.550;7.208;2023-05-07T05:32:16;100913.60;;;14.20
70831;BMP180;58451;51.550;7.208;2023-05-07T05:33:48;100918.80;;;14.20
70831;BMP180;58451;51.550;7.208;2023-05-07T05:35:21;100914.40;;;14.20
70831;BMP180;58451;51.550;7.208;2023-05-07T05:36:53;100912.00;;;14.24
70831;BMP180;58451;51.550;7.208;2023-05-07T05:38:25;100911.60;;;14.30
70831;BMP180;58451;51.550;7.208;2023-05-07T05:39:57;100913.20;;;14.30
70831;BMP180;58451;51.550;7.208;2023-05-07T05:41:30;100911.40;;;14.30
70831;BMP180;58451;51.550;7.208;2023-05-07T05:43:02;100910.00;;;14.30
70831;BMP180;58451;51.550;7.208;2023-05-07T05:44:34;100908.00;;;14.30
70831;BMP180;58451;51.550;7.208;2023-05-07T05:46:06;100908.00;;;14.30
70831;BMP180;58451;51.550;7.208;2023-05-07T05:47:40;100911.80;;;14.30
70831;BMP180;58451;51.550;7.208;2023-05-07T05:49:12;100911.60;;;14.32
70831;BMP180;58451;51.550;7.208;2023-05-07T05:50:45;100910.00;;;14.40
70831;BMP180;58451;51.550;7.208;2023-05-07T05:52:17;100908.60;;;14.40
70831;BMP180;58451;51.550;7.208;2023-05-07T05:53:50;100906.60;;;14.50
70831;BMP180;58451;51.550;7.208;2023-05-07T05:55:22;100904.20;;;14.60
70831;BMP180;58451;51.550;7.208;2023-05-07T05:56:54;100907.20;;;14.60
70831;BMP180;58451;51.550;7.208;2023-05-07T05:58:26;100910.80;;;14.70
70831;BMP180;58451;51.550;7.208;2023-05-07T06:00:02;100914.00;;;14.70
70831;BMP180;58451;51.550;7.208;2023-05-07T06:01:36;100907.20;;;14.76
70831;BMP180;58451;51.550;7.208;2023-05-07T06:03:08;100909.80;;;14.80
70831;BMP180;58451;51.550;7.208;2023-05-07T06:04:40;100911.80;;;14.90
70831;BMP180;58451;51.550;7.208;2023-05-07T06:06:14;100913.80;;;15.00
70831;BMP180;58451;51.550;7.208;2023-05-07T06:07:46;100915.80;;;15.10
70831;BMP180;58451;51.550;7.208;2023-05-07T06:09:18;100917.20;;;15.20
70831;BMP180;58451;51.550;7.208;2023-05-07T06:10:50;100914.40;;;15.30
70831;BMP180;58451;51.550;7.208;2023-05-07T06:12:22;100911.00;;;15.40
70831;BMP180;58451;51.550;7.208;2023-05-07T06:13:54;100914.00;;;15.40
70831;BMP180;58451;51.550;7.208;2023-05-07T06:15:27;100916.00;;;15.50
70831;BMP180;58451;51.550;7.208;2023-05-07T06:16:59;100915.60;;;15.62
70831;BMP180;58451;51.550;7.208;2023-05-07T06:18:31;100923.40;;;15.80
70831;BMP180;58451;51.550;7.208;2023-05-07T06:20:03;100924.40;;;15.90
70831;BMP180;58451;51.550;7.208;2023-05-07T06:21:35;100927.40;;;15.90
70831;BMP180;58451;51.550;7.208;2023-05-07T06:23:07;100929.00;;;15.90
70831;BMP180;58451;51.550;7.208;2023-05-07T06:24:39;100927.20;;;15.98
70831;BMP180;58451;51.550;7.208;2023-05-07T06:26:12;100923.20;;;16.00
70831;BMP180;58451;51.550;7.208;2023-05-07T06:27:45;100925.80;;;16.02
70831;BMP180;58451;51.550;7.208;2023-05-07T06:29:18;100930.00;;;16.10
70831;BMP180;58451;51.550;7.208;2023-05-07T06:30:50;100932.60;;;16.10
70831;BMP180;58451;51.550;7.208;2023-05-07T06:32:22;100932.80;;;16.20
70831;BMP180;58451;51.550;7.208;2023-05-07T06:33:54;100933.20;;;16.20
70831;BMP180;58451;51.550;7.208;2023-05-07T06:35:28;100935.80;;;16.30
70831;BMP180;58451;51.550;7.208;2023-05-07T06:36:59;100941.20;;;16.30
70831;BMP180;58451;51.550;7.208;2023-05-07T06:38:41;100939.60;;;16.34
70831;BMP180;58451;51.550;7.208;2023-05-07T06:40:12;100950.40;;;16.38
70831;BMP180;58451;51.550;7.208;2023-05-07T06:41:45;100947.60;;;16.40
70831;BMP180;58451;51.550;7.208;2023-05-07T06:43:25;100952.20;;;16.40
70831;BMP180;58451;51.550;7.208;2023-05-07T06:45:31;100953.40;;;16.40
70831;BMP180;58451;51.550;7.208;2023-05-07T06:47:03;100948.80;;;16.50
70831;BMP180;58451;51.550;7.208;2023-05-07T06:48:35;100950.40;;;16.50
70831;BMP180;58451;51.550;7.208;2023-05-07T06:50:09;100946.40;;;16.60
70831;BMP180;58451;51.550;7.208;2023-05-07T06:51:42;100948.00;;;16.70
70831;BMP180;58451;51.550;7.208;2023-05-07T06:53:14;100946.00;;;16.70
70831;BMP180;58451;51.550;7.208;2023-05-07T06:54:46;100950.80;;;16.80
70831;BMP180;58451;51.550;7.208;2023-05-07T06:56:20;100945.40;;;16.84
70831;BMP180;58451;51.550;7.208;2023-05-07T06:57:52;100948.40;;;16.90
70831;BMP180;58451;51.550;7.208;2023-05-07T06:59:25;100942.20;;;16.90
70831;BMP180;58451;51.550;7.208;2023-05-07T07:00:57;100942.60;;;16.90
70831;BMP180;58451;51.550;7.208;2023-05-07T07:02:29;100940.60;;;16.92
70831;BMP180;58451;51.550;7.208;2023-05-07T07:04:01;100940.20;;;17.00
70831;BMP180;58451;51.550;7.208;2023-05-07T07:05:33;100937.80;;;17.00
70831;BMP180;58451;51.550;7.208;2023-05-07T07:07:06;100939.60;;;17.00
70831;BMP180;58451;51.550;7.208;2023-05-07T07:08:39;100941.20;;;17.10
70831;BMP180;58451;51.550;7.208;2023-05-07T07:10:11;100943.00;;;17.14
70831;BMP180;58451;51.550;7.208;2023-05-07T07:11:43;100944.80;;;17.28
70831;BMP180;58451;51.550;7.208;2023-05-07T07:13:15;100942.40;;;17.40
70831;BMP180;58451;51.550;7.208;2023-05-07T07:14:47;100941.60;;;17.50
70831;BMP180;58451;51.550;7.208;2023-05-07T07:16:21;100945.80;;;17.60
70831;BMP180;58451;51.550;7.208;2023-05-07T07:17:55;100943.40;;;17.76
70831;BMP180;58451;51.550;7.208;2023-05-07T07:19:27;100945.40;;;17.90
70831;BMP180;58451;51.550;7.208;2023-05-07T07:20:59;100946.00;;;18.00
70831;BMP180;58451;51.550;7.208;2023-05-07T07:22:32;100943.40;;;18.00
70831;BMP180;58451;51.550;7.208;2023-05-07T07:24:04;100942.80;;;18.00
70831;BMP180;58451;51.550;7.208;2023-05-07T07:25:36;100942.40;;;18.00
70831;BMP180;58451;51.550;7.208;2023-05-07T07:27:08;100942.00;;;18.00
70831;BMP180;58451;51.550;7.208;2023-05-07T07:28:46;100945.80;;;18.00
70831;BMP180;58451;51.550;7.208;2023-05-07T07:30:21;100947.60;;;17.90
70831;BMP180;58451;51.550;7.208;2023-05-07T07:31:53;100943.00;;;17.90
70831;BMP180;58451;51.550;7.208;2023-05-07T07:33:25;100949.00;;;18.00
70831;BMP180;58451;51.550;7.208;2023-05-07T07:34:57;100945.60;;;18.00
70831;BMP180;58451;51.550;7.208;2023-05-07T07:36:29;100945.20;;;18.00
70831;BMP180;58451;51.550;7.208;2023-05-07T07:38:16;100944.00;;;18.00
70831;BMP180;58451;51.550;7.208;2023-05-07T07:39:47;100945.80;;;18.10
70831;BMP180;58451;51.550;7.208;2023-05-07T07:41:19;100945.00;;;18.10
70831;BMP180;58451;51.550;7.208;2023-05-07T07:42:53;100950.60;;;18.10
70831;BMP180;58451;51.550;7.208;2023-05-07T07:44:25;100947.20;;;18.00
70831;BMP180;58451;51.550;7.208;2023-05-07T07:46:01;100947.80;;;17.90
70831;BMP180;58451;51.550;7.208;2023-05-07T07:47:33;100949.40;;;17.84
70831;BMP180;58451;51.550;7.208;2023-05-07T07:49:05;100953.60;;;17.80
70831;BMP180;58451;51.550;7.208;2023-05-07T07:50:38;100953.60;;;17.80
70831;BMP180;58451;51.550;7.208;2023-05-07T07:52:18;100954.80;;;17.80
70831;BMP180;58451;51.550;7.208;2023-05-07T07:53:50;100960.00;;;17.84
70831;BMP180;58451;51.550;7.208;2023-05-07T07:55:22;100958.40;;;17.90
70831;BMP180;58451;51.550;7.208;2023-05-07T07:56:56;100960.20;;;18.04
70831;BMP180;58451;51.550;7.208;2023-05-07T07:58:28;100964.20;;;18.10
70831;BMP180;58451;51.550;7.208;2023-05-07T08:00:00;100961.00;;;18.20
70831;BMP180;58451;51.550;7.208;2023-05-07T08:01:33;100962.80;;;18.30
70831;BMP180;58451;51.550;7.208;2023-05-07T08:03:09;100967.40;;;18.40
70831;BMP180;58451;51.550;7.208;2023-05-07T08:04:42;100961.40;;;18.40
70831;BMP180;58451;51.550;7.208;2023-05-07T08:06:18;100959.40;;;18.46
70831;BMP180;58451;51.550;7.208;2023-05-07T08:18:09;100968.20;;;18.50
70831;BMP180;58451;51.550;7.208;2023-05-07T08:19:42;100965.80;;;18.50
70831;BMP180;58451;51.550;7.208;2023-05-07T08:21:16;100971.80;;;18.60
70831;BMP180;58451;51.550;7.208;2023-05-07T08:22:48;100973.20;;;18.60
70831;BMP180;58451;51.550;7.208;2023-05-07T08:24:20;100969.60;;;18.70
70831;BMP180;58451;51.550;7.208;2023-05-07T08:25:53;100973.20;;;18.66
70831;BMP180;58451;51.550;7.208;2023-05-07T08:27:25;100975.60;;;18.60
70831;BMP180;58451;51.550;7.208;2023-05-07T08:28:56;100979.00;;;18.60
70831;BMP180;58451;51.550;7.208;2023-05-07T08:30:29;100984.00;;;18.70
70831;BMP180;58451;51.550;7.208;2023-05-07T08:32:01;100985.00;;;18.70
70831;BMP180;58451;51.550;7.208;2023-05-07T08:33:32;100982.60;;;18.80
70831;BMP180;58451;51.550;7.208;2023-05-07T08:35:05;100981.60;;;18.90
70831;BMP180;58451;51.550;7.208;2023-05-07T08:36:37;100979.60;;;18.90
70831;BMP180;58451;51.550;7.208;2023-05-07T08:38:09;100979.80;;;18.90
70831;BMP180;58451;51.550;7.208;2023-05-07T08:39:41;100975.20;;;18.90
70831;BMP180;58451;51.550;7.208;2023-05-07T08:41:18;100975.20;;;19.00
70831;BMP180;58451;51.550;7.208;2023-05-07T08:42:53;100976.00;;;19.00
70831;BMP180;58451;51.550;7.208;2023-05-07T08:44:27;100976.80;;;19.10
70831;BMP180;58451;51.550;7.208;2023-05-07T08:46:01;100980.00;;;19.10
70831;BMP180;58451;51.550;7.208;2023-05-07T08:47:43;100978.40;;;19.10
70831;BMP180;58451;51.550;7.208;2023-05-07T08:49:20;100981.20;;;19.10
70831;BMP180;58451;51.550;7.208;2023-05-07T08:50:52;100985.20;;;19.20
70831;BMP180;58451;51.550;7.208;2023-05-07T08:52:26;100981.00;;;19.20
70831;BMP180;58451;51.550;7.208;2023-05-07T08:54:01;100977.20;;;19.20
70831;BMP180;58451;51.550;7.208;2023-05-07T08:55:35;100982.00;;;19.30
70831;BMP180;58451;51.550;7.208;2023-05-07T08:57:07;100983.20;;;19.30
70831;BMP180;58451;51.550;7.208;2023-05-07T08:58:39;100981.00;;;19.20